KNXP

Twentynine Palms Self Airport

Twentynine Palms, California, USA
METAR KNXP 231356Z 30005KT 10SM CLR 21/06 A2994 RMK AO2 SLP103 FIRST T02060056
Observed Flight Rules
May-23 @ 13:56 UTC (an hour ago) Visual Flight Rules
Wind Visibility Clouds
300° at 5 knots 10 miles
  • Clear skies
Temperatures Readings
Current 21°C / 70°F
Dewpoint 6°C / 43°F
Humidity 38%
Altimeter 29.94" Hg
Pressure 1010.3 hPa
Elevation 626
METAR KNXP 231356Z 30005KT 10SM CLR 21/06 A2994 RMK AO2 SLP103 FIRST T02060056
Observed Flight Rules
May-23 @ 13:56 UTC
(an hour ago)
VFR
Wind Visibility
300° at 5 knots 10 miles
Clouds
  • Clear skies
Temperature Dewpoint
21°C / 70°F 6°C / 43°F
Humidity Altimeter Pressure
38% 29.94" Hg 1010.3 hPa